GLO2322 SBIL-SBRF
Flight info
| Callsign | GLO2322 |
|---|---|
| Flight time | 1h 16m |
| Altitude | 39000 |
| Route | DOPRU UZ73 ESMOX UZ14 GERSO UZ42 ANBEX |
| Aircraft | B737/M-SDE2E3FGHIRWXY/LB1 |
Departure
| Time | 2026-04-22 00:53 |
|---|---|
| Airport | Bahia - Jorge Amado Airport (SBIL) |
Arrival
| Time | 2026-04-22 02:10 |
|---|---|
| Airport | Recife/Guararapes - Gilberto Freyre International Airport (SBRF) |
| Time | Latitude | Longitude | Altitude | Speed | Heading |
|---|---|---|---|---|---|
| 2026-04-22 00:39 | -14.81446 | -39.03239 | 19 ft | 0 kts | 36° |
| 2026-04-22 00:46 | -14.81461 | -39.03247 | 19 ft | 2 kts | 13° |
| 2026-04-22 00:47 | -14.81477 | -39.03248 | 19 ft | 2 kts | 349° |
| 2026-04-22 00:47 | -14.81491 | -39.03245 | 19 ft | 1 kts | 357° |
| 2026-04-22 00:47 | -14.81493 | -39.03245 | 19 ft | 0 kts | 360° |
| 2026-04-22 00:48 | -14.81490 | -39.03243 | 19 ft | 1 kts | 24° |
| 2026-04-22 00:48 | -14.81485 | -39.03225 | 19 ft | 6 kts | 82° |
| 2026-04-22 00:49 | -14.81480 | -39.03179 | 18 ft | 11 kts | 84° |
| 2026-04-22 00:49 | -14.81480 | -39.03107 | 18 ft | 9 kts | 90° |
| 2026-04-22 00:49 | -14.81504 | -39.03083 | 19 ft | 1 kts | 180° |
| 2026-04-22 00:49 | -14.81507 | -39.03083 | 18 ft | 0 kts | 180° |
| 2026-04-22 00:51 | -14.81520 | -39.03083 | 17 ft | 10 kts | 180° |
| 2026-04-22 00:51 | -14.81585 | -39.03030 | 18 ft | 14 kts | 96° |
| 2026-04-22 00:51 | -14.81582 | -39.02926 | 17 ft | 17 kts | 88° |
| 2026-04-22 00:51 | -14.81579 | -39.02798 | 18 ft | 18 kts | 88° |
| 2026-04-22 00:52 | -14.81582 | -39.02674 | 20 ft | 17 kts | 113° |
| 2026-04-22 00:52 | -14.81584 | -39.02594 | 21 ft | 6 kts | 19° |
| 2026-04-22 00:52 | -14.81566 | -39.02619 | 19 ft | 5 kts | 259° |
| 2026-04-22 00:52 | -14.81573 | -39.02651 | 19 ft | 0 kts | 267° |
| 2026-04-22 00:53 | -14.81575 | -39.02695 | 18 ft | 32 kts | 268° |
| 2026-04-22 00:53 | -14.81589 | -39.03233 | 17 ft | 115 kts | 268° |
| 2026-04-22 00:53 | -14.81605 | -39.04262 | 255 ft | 158 kts | 269° |
| 2026-04-22 00:53 | -14.81571 | -39.05401 | 1037 ft | 163 kts | 268° |
| 2026-04-22 00:54 | -14.81548 | -39.06612 | 1938 ft | 172 kts | 269° |
| 2026-04-22 00:54 | -14.81050 | -39.07804 | 2536 ft | 203 kts | 315° |
| 2026-04-22 00:54 | -14.79707 | -39.08523 | 2919 ft | 236 kts | 353° |
| 2026-04-22 00:54 | -14.78033 | -39.08272 | 3330 ft | 259 kts | 31° |
| 2026-04-22 00:55 | -14.76754 | -39.06988 | 4036 ft | 265 kts | 62° |
| 2026-04-22 00:55 | -14.75919 | -39.05301 | 5163 ft | 264 kts | 68° |
| 2026-04-22 00:55 | -14.74418 | -39.01768 | 7252 ft | 273 kts | 68° |
| 2026-04-22 00:56 | -14.73634 | -38.99968 | 8285 ft | 277 kts | 67° |
| 2026-04-22 00:56 | -14.72821 | -38.98148 | 9313 ft | 280 kts | 66° |
| 2026-04-22 00:56 | -14.71987 | -38.96317 | 10317 ft | 284 kts | 65° |
| 2026-04-22 00:56 | -14.71108 | -38.94412 | 10816 ft | 307 kts | 65° |
| 2026-04-22 00:57 | -14.70139 | -38.92328 | 11134 ft | 332 kts | 65° |
| 2026-04-22 00:57 | -14.69114 | -38.90138 | 11808 ft | 343 kts | 64° |
| 2026-04-22 00:57 | -14.68066 | -38.87903 | 12592 ft | 349 kts | 64° |
| 2026-04-22 00:57 | -14.67036 | -38.85601 | 13409 ft | 356 kts | 65° |
| 2026-04-22 00:58 | -14.65991 | -38.83290 | 14180 ft | 361 kts | 64° |
| 2026-04-22 00:58 | -14.64883 | -38.80940 | 14910 ft | 367 kts | 63° |
| 2026-04-22 00:58 | -14.63736 | -38.78569 | 15633 ft | 373 kts | 63° |
| 2026-04-22 00:58 | -14.62520 | -38.76396 | 16294 ft | 378 kts | 51° |
| 2026-04-22 00:59 | -14.60539 | -38.74465 | 17051 ft | 381 kts | 33° |
| 2026-04-22 00:59 | -14.58147 | -38.73277 | 17792 ft | 383 kts | 17° |
| 2026-04-22 00:59 | -14.55592 | -38.72432 | 18507 ft | 387 kts | 15° |
| 2026-04-22 00:59 | -14.52991 | -38.71630 | 19099 ft | 392 kts | 16° |
| 2026-04-22 01:00 | -14.50353 | -38.70826 | 19657 ft | 398 kts | 17° |
| 2026-04-22 01:00 | -14.47681 | -38.70003 | 20240 ft | 403 kts | 17° |
| 2026-04-22 01:00 | -14.44980 | -38.69156 | 20808 ft | 408 kts | 18° |
| 2026-04-22 01:00 | -14.42286 | -38.68301 | 21360 ft | 412 kts | 19° |
| 2026-04-22 01:01 | -14.39533 | -38.67420 | 21900 ft | 417 kts | 19° |
| 2026-04-22 01:01 | -14.36748 | -38.66524 | 22488 ft | 420 kts | 19° |
| 2026-04-22 01:01 | -14.33948 | -38.65621 | 23032 ft | 424 kts | 19° |
| 2026-04-22 01:01 | -14.31115 | -38.64708 | 23524 ft | 429 kts | 19° |
| 2026-04-22 01:02 | -14.28253 | -38.63786 | 23982 ft | 432 kts | 19° |
| 2026-04-22 01:02 | -14.25374 | -38.62859 | 24433 ft | 434 kts | 19° |
| 2026-04-22 01:02 | -14.22472 | -38.61925 | 24868 ft | 438 kts | 19° |
| 2026-04-22 01:02 | -14.19555 | -38.60987 | 25287 ft | 441 kts | 19° |
| 2026-04-22 01:03 | -14.16613 | -38.60041 | 25713 ft | 444 kts | 19° |
| 2026-04-22 01:03 | -14.13688 | -38.59101 | 26113 ft | 447 kts | 19° |
| 2026-04-22 01:03 | -14.10702 | -38.58141 | 26516 ft | 451 kts | 19° |
| 2026-04-22 01:03 | -14.07706 | -38.57178 | 26920 ft | 454 kts | 19° |
| 2026-04-22 01:04 | -14.04680 | -38.56206 | 27316 ft | 457 kts | 18° |
| 2026-04-22 01:04 | -14.01631 | -38.55227 | 27706 ft | 460 kts | 19° |
| 2026-04-22 01:04 | -13.98564 | -38.54242 | 28100 ft | 462 kts | 18° |
| 2026-04-22 01:04 | -13.95479 | -38.53251 | 28453 ft | 466 kts | 18° |
| 2026-04-22 01:05 | -13.92383 | -38.52258 | 28873 ft | 467 kts | 18° |
| 2026-04-22 01:05 | -13.89263 | -38.51257 | 29235 ft | 471 kts | 18° |
| 2026-04-22 01:05 | -13.86103 | -38.50309 | 29519 ft | 475 kts | 16° |
| 2026-04-22 01:05 | -13.82901 | -38.49437 | 29925 ft | 476 kts | 15° |
| 2026-04-22 01:06 | -13.79723 | -38.48607 | 30282 ft | 478 kts | 15° |
| 2026-04-22 01:06 | -13.76483 | -38.47764 | 30500 ft | 482 kts | 15° |
| 2026-04-22 01:06 | -13.73224 | -38.46910 | 30832 ft | 483 kts | 15° |
| 2026-04-22 01:06 | -13.69960 | -38.46045 | 31135 ft | 485 kts | 15° |
| 2026-04-22 01:07 | -13.66692 | -38.45170 | 31373 ft | 487 kts | 15° |
| 2026-04-22 01:07 | -13.63406 | -38.44284 | 31735 ft | 487 kts | 15° |
| 2026-04-22 01:07 | -13.60127 | -38.43398 | 32148 ft | 486 kts | 15° |
| 2026-04-22 01:07 | -13.56858 | -38.42515 | 32596 ft | 484 kts | 15° |
| 2026-04-22 01:08 | -13.53648 | -38.41648 | 33040 ft | 483 kts | 15° |
| 2026-04-22 01:08 | -13.50395 | -38.40770 | 33464 ft | 482 kts | 14° |
| 2026-04-22 01:08 | -13.47144 | -38.39893 | 33920 ft | 481 kts | 14° |
| 2026-04-22 01:08 | -13.43937 | -38.39028 | 34356 ft | 479 kts | 14° |
| 2026-04-22 01:09 | -13.40715 | -38.38161 | 34739 ft | 478 kts | 14° |
| 2026-04-22 01:09 | -13.37510 | -38.37297 | 35140 ft | 476 kts | 14° |
| 2026-04-22 01:09 | -13.34316 | -38.36437 | 35591 ft | 472 kts | 14° |
| 2026-04-22 01:09 | -13.31149 | -38.35585 | 36022 ft | 469 kts | 14° |
| 2026-04-22 01:10 | -13.27997 | -38.34736 | 36404 ft | 468 kts | 14° |
| 2026-04-22 01:10 | -13.26443 | -38.34318 | 36593 ft | 467 kts | 14° |
| 2026-04-22 01:10 | -13.23938 | -38.33644 | 36893 ft | 465 kts | 14° |
| 2026-04-22 01:10 | -13.20880 | -38.32821 | 37255 ft | 463 kts | 14° |
| 2026-04-22 01:11 | -13.17765 | -38.31983 | 37612 ft | 462 kts | 14° |
| 2026-04-22 01:11 | -13.14658 | -38.31148 | 37964 ft | 460 kts | 14° |
| 2026-04-22 01:11 | -13.11618 | -38.30317 | 38313 ft | 459 kts | 16° |
| 2026-04-22 01:11 | -13.08634 | -38.29145 | 38627 ft | 458 kts | 25° |
| 2026-04-22 01:12 | -13.05871 | -38.27528 | 38890 ft | 458 kts | 34° |
| 2026-04-22 01:12 | -13.03269 | -38.25632 | 39031 ft | 460 kts | 35° |
| 2026-04-22 01:12 | -12.98078 | -38.21716 | 39019 ft | 463 kts | 35° |
| 2026-04-22 01:13 | -12.92907 | -38.17833 | 39017 ft | 458 kts | 35° |
| 2026-04-22 01:13 | -12.87759 | -38.14019 | 39018 ft | 455 kts | 34° |
| 2026-04-22 01:14 | -12.82798 | -38.10366 | 39021 ft | 452 kts | 34° |
| 2026-04-22 01:14 | -12.77687 | -38.06608 | 39023 ft | 451 kts | 34° |
| 2026-04-22 01:15 | -12.72589 | -38.02861 | 39022 ft | 451 kts | 34° |
| 2026-04-22 01:15 | -12.67481 | -37.99108 | 39024 ft | 451 kts | 34° |
| 2026-04-22 01:16 | -12.62372 | -37.95354 | 39020 ft | 453 kts | 34° |
| 2026-04-22 01:16 | -12.57238 | -37.91584 | 39025 ft | 455 kts | 33° |
| 2026-04-22 01:17 | -12.52086 | -37.87803 | 39021 ft | 457 kts | 33° |
| 2026-04-22 01:17 | -12.46944 | -37.84031 | 39022 ft | 458 kts | 33° |
| 2026-04-22 01:18 | -12.41766 | -37.80234 | 39022 ft | 459 kts | 33° |
| 2026-04-22 01:18 | -12.36561 | -37.76420 | 39021 ft | 459 kts | 33° |
| 2026-04-22 01:19 | -12.31409 | -37.72646 | 39020 ft | 459 kts | 32° |
| 2026-04-22 01:19 | -12.26213 | -37.68841 | 39019 ft | 458 kts | 32° |
| 2026-04-22 01:20 | -12.21071 | -37.65078 | 39019 ft | 457 kts | 32° |
| 2026-04-22 01:20 | -12.15909 | -37.61302 | 39019 ft | 456 kts | 32° |
| 2026-04-22 01:21 | -12.10755 | -37.57534 | 39017 ft | 454 kts | 32° |
| 2026-04-22 01:21 | -12.05619 | -37.53781 | 39019 ft | 454 kts | 32° |
| 2026-04-22 01:22 | -12.00483 | -37.50030 | 39019 ft | 453 kts | 32° |
| 2026-04-22 01:22 | -11.95357 | -37.46287 | 39018 ft | 452 kts | 32° |
| 2026-04-22 01:23 | -11.90232 | -37.42553 | 39016 ft | 452 kts | 31° |
| 2026-04-22 01:23 | -11.85136 | -37.38864 | 39016 ft | 451 kts | 31° |
| 2026-04-22 01:24 | -11.80003 | -37.35153 | 39017 ft | 451 kts | 31° |
| 2026-04-22 01:24 | -11.74875 | -37.31444 | 39016 ft | 452 kts | 31° |
| 2026-04-22 01:25 | -11.69747 | -37.27734 | 39017 ft | 452 kts | 31° |
| 2026-04-22 01:25 | -11.64623 | -37.24029 | 39016 ft | 452 kts | 31° |
| 2026-04-22 01:26 | -11.59521 | -37.20342 | 39015 ft | 452 kts | 31° |
| 2026-04-22 01:26 | -11.54395 | -37.16638 | 39013 ft | 451 kts | 31° |
| 2026-04-22 01:27 | -11.49265 | -37.12934 | 39014 ft | 451 kts | 31° |
| 2026-04-22 01:27 | -11.44142 | -37.09237 | 39013 ft | 451 kts | 31° |
| 2026-04-22 01:28 | -11.39016 | -37.05538 | 39013 ft | 451 kts | 31° |
| 2026-04-22 01:28 | -11.33902 | -37.01850 | 39009 ft | 450 kts | 31° |
| 2026-04-22 01:29 | -11.28779 | -36.98158 | 39010 ft | 450 kts | 32° |
| 2026-04-22 01:29 | -11.23692 | -36.94493 | 39014 ft | 450 kts | 32° |
| 2026-04-22 01:30 | -11.18573 | -36.90807 | 39016 ft | 450 kts | 32° |
| 2026-04-22 01:30 | -11.13467 | -36.87131 | 39012 ft | 450 kts | 32° |
| 2026-04-22 01:31 | -11.08390 | -36.83478 | 39015 ft | 450 kts | 32° |
| 2026-04-22 01:31 | -11.03300 | -36.79817 | 39014 ft | 450 kts | 32° |
| 2026-04-22 01:32 | -10.98175 | -36.76132 | 39009 ft | 451 kts | 32° |
| 2026-04-22 01:32 | -10.93040 | -36.72442 | 39008 ft | 452 kts | 32° |
| 2026-04-22 01:33 | -10.87898 | -36.68747 | 39008 ft | 452 kts | 32° |
| 2026-04-22 01:33 | -10.82717 | -36.65090 | 39004 ft | 451 kts | 27° |
| 2026-04-22 01:34 | -10.77247 | -36.62218 | 39008 ft | 449 kts | 23° |
| 2026-04-22 01:34 | -10.71612 | -36.59452 | 39006 ft | 450 kts | 23° |
| 2026-04-22 01:35 | -10.65979 | -36.56665 | 39005 ft | 450 kts | 23° |
| 2026-04-22 01:35 | -10.60366 | -36.53853 | 39008 ft | 450 kts | 23° |
| 2026-04-22 01:36 | -10.54759 | -36.51031 | 39007 ft | 450 kts | 24° |
| 2026-04-22 01:36 | -10.50093 | -36.48681 | 39005 ft | 449 kts | 24° |
| 2026-04-22 01:37 | -10.43582 | -36.45405 | 39003 ft | 449 kts | 24° |
| 2026-04-22 01:37 | -10.37985 | -36.42591 | 39006 ft | 449 kts | 24° |
| 2026-04-22 01:38 | -10.33304 | -36.40238 | 39006 ft | 448 kts | 24° |
| 2026-04-22 01:38 | -10.27717 | -36.37431 | 39005 ft | 448 kts | 24° |
| 2026-04-22 01:39 | -10.22132 | -36.34627 | 39007 ft | 448 kts | 24° |
| 2026-04-22 01:39 | -10.16581 | -36.31840 | 39009 ft | 447 kts | 24° |
| 2026-04-22 01:40 | -10.11001 | -36.29040 | 39012 ft | 447 kts | 24° |
| 2026-04-22 01:40 | -10.05424 | -36.26243 | 39009 ft | 447 kts | 24° |
| 2026-04-22 01:41 | -9.99852 | -36.23449 | 39011 ft | 446 kts | 24° |
| 2026-04-22 01:41 | -9.94293 | -36.20662 | 39007 ft | 446 kts | 24° |
| 2026-04-22 01:42 | -9.88735 | -36.17878 | 39011 ft | 445 kts | 24° |
| 2026-04-22 01:42 | -9.83215 | -36.15113 | 39011 ft | 444 kts | 24° |
| 2026-04-22 01:43 | -9.77669 | -36.12337 | 39011 ft | 444 kts | 25° |
| 2026-04-22 01:43 | -9.72168 | -36.09584 | 39013 ft | 443 kts | 25° |
| 2026-04-22 01:44 | -9.66633 | -36.06815 | 39013 ft | 443 kts | 25° |
| 2026-04-22 01:44 | -9.61108 | -36.04052 | 39018 ft | 443 kts | 25° |
| 2026-04-22 01:45 | -9.55619 | -36.01308 | 39020 ft | 442 kts | 25° |
| 2026-04-22 01:45 | -9.50097 | -35.98548 | 39021 ft | 442 kts | 25° |
| 2026-04-22 01:46 | -9.44585 | -35.95794 | 39019 ft | 441 kts | 25° |
| 2026-04-22 01:46 | -9.39079 | -35.93045 | 39018 ft | 441 kts | 25° |
| 2026-04-22 01:47 | -9.33554 | -35.90287 | 38615 ft | 447 kts | 25° |
| 2026-04-22 01:47 | -9.30763 | -35.88894 | 37994 ft | 446 kts | 25° |
| 2026-04-22 01:47 | -9.27981 | -35.87506 | 37317 ft | 445 kts | 25° |
| 2026-04-22 01:48 | -9.25239 | -35.86138 | 36637 ft | 444 kts | 25° |
| 2026-04-22 01:48 | -9.22471 | -35.84757 | 35928 ft | 444 kts | 25° |
| 2026-04-22 01:48 | -9.19690 | -35.83370 | 35136 ft | 446 kts | 25° |
| 2026-04-22 01:48 | -9.16898 | -35.81978 | 34313 ft | 449 kts | 25° |
| 2026-04-22 01:49 | -9.14083 | -35.80574 | 33464 ft | 451 kts | 25° |
| 2026-04-22 01:49 | -9.11288 | -35.79180 | 32857 ft | 446 kts | 25° |
| 2026-04-22 01:49 | -9.08507 | -35.77793 | 32229 ft | 443 kts | 25° |
| 2026-04-22 01:49 | -9.05749 | -35.76419 | 31627 ft | 439 kts | 25° |
| 2026-04-22 01:50 | -9.03021 | -35.75056 | 31045 ft | 436 kts | 26° |
| 2026-04-22 01:50 | -9.00502 | -35.73362 | 30437 ft | 436 kts | 40° |
| 2026-04-22 01:50 | -8.98289 | -35.71280 | 29828 ft | 434 kts | 42° |
| 2026-04-22 01:50 | -8.96129 | -35.69162 | 29166 ft | 431 kts | 43° |
| 2026-04-22 01:51 | -8.93993 | -35.67057 | 28530 ft | 427 kts | 43° |
| 2026-04-22 01:51 | -8.91890 | -35.65001 | 27929 ft | 423 kts | 43° |
| 2026-04-22 01:51 | -8.89747 | -35.62928 | 27318 ft | 419 kts | 42° |
| 2026-04-22 01:51 | -8.87663 | -35.60930 | 26739 ft | 416 kts | 42° |
| 2026-04-22 01:52 | -8.85565 | -35.58928 | 26143 ft | 414 kts | 43° |
| 2026-04-22 01:52 | -8.83473 | -35.56936 | 25529 ft | 412 kts | 43° |
| 2026-04-22 01:52 | -8.81389 | -35.54952 | 24932 ft | 410 kts | 43° |
| 2026-04-22 01:52 | -8.79318 | -35.52980 | 24326 ft | 408 kts | 43° |
| 2026-04-22 01:53 | -8.77251 | -35.51013 | 23729 ft | 407 kts | 43° |
| 2026-04-22 01:53 | -8.75194 | -35.49054 | 23045 ft | 406 kts | 43° |
| 2026-04-22 01:53 | -8.73150 | -35.47107 | 22419 ft | 402 kts | 43° |
| 2026-04-22 01:53 | -8.71124 | -35.45178 | 21813 ft | 398 kts | 43° |
| 2026-04-22 01:54 | -8.69154 | -35.43304 | 21234 ft | 393 kts | 44° |
| 2026-04-22 01:54 | -8.67168 | -35.41417 | 20670 ft | 389 kts | 44° |
| 2026-04-22 01:54 | -8.65205 | -35.39555 | 20106 ft | 385 kts | 44° |
| 2026-04-22 01:54 | -8.63283 | -35.37732 | 19550 ft | 382 kts | 44° |
| 2026-04-22 01:55 | -8.61357 | -35.35905 | 18961 ft | 379 kts | 44° |
| 2026-04-22 01:55 | -8.59440 | -35.34087 | 18382 ft | 377 kts | 44° |
| 2026-04-22 01:55 | -8.57537 | -35.32281 | 17730 ft | 374 kts | 44° |
| 2026-04-22 01:55 | -8.55647 | -35.30489 | 17127 ft | 370 kts | 44° |
| 2026-04-22 01:56 | -8.53778 | -35.28715 | 16547 ft | 366 kts | 44° |
| 2026-04-22 01:56 | -8.51931 | -35.26964 | 15969 ft | 362 kts | 44° |
| 2026-04-22 01:56 | -8.50095 | -35.25223 | 15408 ft | 359 kts | 44° |
| 2026-04-22 01:56 | -8.49017 | -35.24200 | 15078 ft | 357 kts | 44° |
| 2026-04-22 01:57 | -8.47212 | -35.22488 | 14508 ft | 354 kts | 44° |
| 2026-04-22 01:57 | -8.45444 | -35.20812 | 13949 ft | 352 kts | 44° |
| 2026-04-22 01:57 | -8.43668 | -35.19129 | 13329 ft | 350 kts | 44° |
| 2026-04-22 01:57 | -8.41901 | -35.17457 | 12885 ft | 342 kts | 44° |
| 2026-04-22 01:58 | -8.40177 | -35.15828 | 12417 ft | 336 kts | 45° |
| 2026-04-22 01:58 | -8.38479 | -35.14224 | 11890 ft | 333 kts | 45° |
| 2026-04-22 01:58 | -8.36793 | -35.12630 | 11349 ft | 331 kts | 45° |
| 2026-04-22 01:58 | -8.35112 | -35.11041 | 10784 ft | 330 kts | 45° |
| 2026-04-22 01:59 | -8.33442 | -35.09463 | 10413 ft | 323 kts | 45° |
| 2026-04-22 01:59 | -8.31851 | -35.07960 | 10189 ft | 312 kts | 45° |
| 2026-04-22 01:59 | -8.30300 | -35.06497 | 10055 ft | 299 kts | 45° |
| 2026-04-22 01:59 | -8.28789 | -35.05079 | 9715 ft | 295 kts | 43° |
| 2026-04-22 02:00 | -8.27022 | -35.04036 | 9245 ft | 299 kts | 20° |
| 2026-04-22 02:00 | -8.24991 | -35.03533 | 8797 ft | 300 kts | 14° |
| 2026-04-22 02:00 | -8.22979 | -35.03089 | 8382 ft | 291 kts | 15° |
| 2026-04-22 02:00 | -8.21031 | -35.02648 | 7984 ft | 282 kts | 15° |
| 2026-04-22 02:01 | -8.19147 | -35.02213 | 7607 ft | 274 kts | 15° |
| 2026-04-22 02:01 | -8.17318 | -35.01880 | 7235 ft | 269 kts | 2° |
| 2026-04-22 02:01 | -8.15498 | -35.02221 | 6902 ft | 264 kts | 344° |
| 2026-04-22 02:01 | -8.13735 | -35.02781 | 6532 ft | 268 kts | 344° |
| 2026-04-22 02:02 | -8.11928 | -35.03362 | 6153 ft | 277 kts | 344° |
| 2026-04-22 02:02 | -8.10069 | -35.03956 | 5755 ft | 280 kts | 344° |
| 2026-04-22 02:02 | -8.08236 | -35.04537 | 5368 ft | 273 kts | 344° |
| 2026-04-22 02:02 | -8.06421 | -35.05107 | 5025 ft | 273 kts | 344° |
| 2026-04-22 02:03 | -8.04604 | -35.05676 | 4677 ft | 273 kts | 344° |
| 2026-04-22 02:03 | -8.02792 | -35.06242 | 4317 ft | 273 kts | 344° |
| 2026-04-22 02:03 | -8.00944 | -35.06582 | 3999 ft | 267 kts | 6° |
| 2026-04-22 02:03 | -7.99239 | -35.06068 | 3872 ft | 250 kts | 34° |
| 2026-04-22 02:04 | -7.97275 | -35.03576 | 3675 ft | 221 kts | 73° |
| 2026-04-22 02:04 | -7.96784 | -35.02139 | 3564 ft | 213 kts | 76° |
| 2026-04-22 02:04 | -7.96338 | -35.00744 | 3467 ft | 204 kts | 76° |
| 2026-04-22 02:05 | -7.95997 | -34.99384 | 3271 ft | 197 kts | 94° |
| 2026-04-22 02:05 | -7.96364 | -34.98151 | 3069 ft | 179 kts | 132° |
| 2026-04-22 02:05 | -7.97387 | -34.97534 | 2856 ft | 170 kts | 159° |
| 2026-04-22 02:05 | -7.98471 | -34.97075 | 2637 ft | 166 kts | 158° |
| 2026-04-22 02:06 | -7.99536 | -34.96678 | 2404 ft | 159 kts | 161° |
| 2026-04-22 02:06 | -8.00554 | -34.96331 | 2191 ft | 148 kts | 161° |
| 2026-04-22 02:06 | -8.01500 | -34.96015 | 2007 ft | 138 kts | 162° |
| 2026-04-22 02:06 | -8.02360 | -34.95729 | 1882 ft | 122 kts | 162° |
| 2026-04-22 02:07 | -8.03143 | -34.95469 | 1699 ft | 115 kts | 163° |
| 2026-04-22 02:07 | -8.03930 | -34.95208 | 1543 ft | 121 kts | 162° |
| 2026-04-22 02:07 | -8.04735 | -34.94940 | 1378 ft | 123 kts | 162° |
| 2026-04-22 02:07 | -8.05531 | -34.94676 | 1221 ft | 122 kts | 162° |
| 2026-04-22 02:08 | -8.06338 | -34.94408 | 1064 ft | 122 kts | 162° |
| 2026-04-22 02:08 | -8.07161 | -34.94135 | 913 ft | 126 kts | 163° |
| 2026-04-22 02:08 | -8.07989 | -34.93861 | 733 ft | 125 kts | 162° |
| 2026-04-22 02:08 | -8.08820 | -34.93584 | 611 ft | 129 kts | 163° |
| 2026-04-22 02:09 | -8.09664 | -34.93299 | 407 ft | 125 kts | 165° |
| 2026-04-22 02:09 | -8.10491 | -34.93030 | 283 ft | 124 kts | 163° |
| 2026-04-22 02:09 | -8.11333 | -34.92745 | 125 ft | 128 kts | 164° |
| 2026-04-22 02:09 | -8.12148 | -34.92475 | 44 ft | 113 kts | 163° |
| 2026-04-22 02:10 | -8.12753 | -34.92279 | 51 ft | 70 kts | 162° |
| 2026-04-22 02:10 | -8.13074 | -34.92173 | 46 ft | 28 kts | 161° |
| 2026-04-22 02:10 | -8.13210 | -34.92105 | 43 ft | 20 kts | 134° |
| 2026-04-22 02:10 | -8.13276 | -34.92034 | 42 ft | 12 kts | 132° |
| 2026-04-22 02:11 | -8.13324 | -34.91980 | 43 ft | 7 kts | 132° |
| 2026-04-22 02:11 | -8.13349 | -34.91942 | 44 ft | 7 kts | 102° |
| 2026-04-22 02:11 | -8.13338 | -34.91897 | 44 ft | 7 kts | 72° |
| 2026-04-22 02:11 | -8.13329 | -34.91870 | 43 ft | 2 kts | 72° |
| 2026-04-22 02:12 | -8.13328 | -34.91867 | 44 ft | 0 kts | 72° |